Apex, NC (27523)

2:58 AM EDT on April 26, 2017 (GMT -0400)
| | Change Station
Active Advisory: Flood Warning Active Notice: Public Information Statement

Elev -9999 ft 0.00 °N, 0.00 °E | Updated 10 minutes ago

Overcast
Overcast
°F
Feels Like °F
N
Wind Variable Wind from North
Gusts mph

Today
High -- | Low -- °F
--% Chance of Precip.
Yesterday
High -- | Low -- °F
Precip. -- in
Pressure 29.75 in
Visibility 10.0 miles
Clouds Overcast 1200 ft
Dew Point Not available.
Humidity Not available.
Rainfall --
Snow Depth Not available.
6:29 AM 7:58 PM
Waning Crescent, 0% visible
METAR KRDU 260651Z 36004KT 10SM OVC012 16/13 A2975 RMK AO2 SLP072 T01560133
Pressure 29.75 in
Visibility 10.0 miles
Clouds Overcast 1200 ft
Dew Point Not available.
Humidity Not available.
Rainfall --
Snow Depth Not available.
6:29 AM 7:58 PM
Waning Crescent, 0% visible
METAR KRDU 260651Z 36004KT 10SM OVC012 16/13 A2975 RMK AO2 SLP072 T01560133

Get Your Daily Forecast Email!

Thanks for signing up!

Be on the lookout for a verification email in your inbox.

You'll start receiving severe weather alerts in your inbox..

×

10-Day Weather Forecast

Almanac

Astronomy

Apr. 26, 2017 Rise Set
Actual Time
Civil Twilight
Nautical Twilight
Astronomical Twilight
Moon
Length of Visible Light
Length of Day
Tomorrow will be .
, % of the Moon is Illuminated

Today's Extremes

State Highs State Lows

Community

WunderPhotos

WunderBlog® & News

Nearby

Air Quality

  Air Quality AQ Index Pollutant
Not available.

Snow Depth

Station Depth Elevation

Earthquake Activity

City Distance Mag. Time & Date
Minimum magnitude displayed is 2.5.

Coastal Water Temperatures

Place Temperature

Stations

Nearby Weather Stations

Station Location Temp. Windchill Dew Point Humidity Wind Precip. Elev Updated Type
                   

Watches & Warnings

Flood Warning
Issued: 10:30 PM EDT Apr. 25, 2017 – National Weather Service

The Flood Warning continues for
the Haw River near Bynum.
* At 10:16 PM Tuesday the stage was 15.8 feet.
* Flood stage is 11.0 feet.
* Moderate flooding is occurring and moderate flooding is forecast.
* Forecast... the river will continue to fall to below flood stage by
tomorrow evening.
* Impact... at 15.0 feet, the river widens up to 800 feet across, but
flooding remains confined to extensive stretches of Woods and
pastureland along the river.



The following are the latest observations and 7 am forecast stages
for the next several days.


             Fld observed forecast 7 am
location stg stg day time Wed Thu Fri Sat sun

Haw River
Bynum 11 15.8 Tue 10 PM 13.2 9.2 7.2 6.3 5.7



Lat... Lon 3590 7918 3582 7911 3576 7905 3569 7916
          3585 7930